sensor_id;sensor_type;location;lat;lon;timestamp;pressure;altitude;pressure_sealevel;temperature;humidity
70242;BME280;57631;52.218;0.108;2022-10-16T21:26:48;101009.38;;;13.28;100.00
70242;BME280;57631;52.218;0.108;2022-10-16T21:29:11;101002.41;;;14.60;98.08
70242;BME280;57631;52.218;0.108;2022-10-16T21:31:37;101001.08;;;13.63;100.00
70242;BME280;57631;52.218;0.108;2022-10-16T21:34:02;101007.91;;;14.13;100.00
70242;BME280;57631;52.218;0.108;2022-10-16T21:36:28;101009.59;;;13.72;100.00
70242;BME280;57631;52.218;0.108;2022-10-16T21:38:53;100996.50;;;13.85;99.88
70242;BME280;57631;52.218;0.108;2022-10-16T21:41:21;101004.37;;;14.11;98.80
70242;BME280;57631;52.218;0.108;2022-10-16T21:43:44;100994.24;;;14.43;97.68
70242;BME280;57631;52.218;0.108;2022-10-16T21:46:09;100988.17;;;13.97;99.63
70242;BME280;57631;52.218;0.108;2022-10-16T21:48:34;100989.00;;;14.00;98.85
70242;BME280;57631;52.218;0.108;2022-10-16T21:51:00;100991.17;;;13.98;98.95
70242;BME280;57631;52.218;0.108;2022-10-16T21:53:25;100982.85;;;14.86;95.49
70242;BME280;57631;52.218;0.108;2022-10-16T21:55:50;100984.01;;;14.61;96.09
70242;BME280;57631;52.218;0.108;2022-10-16T21:58:16;100969.81;;;14.60;94.97
70242;BME280;57631;52.218;0.108;2022-10-16T22:00:41;100979.89;;;13.54;99.43
70242;BME280;57631;52.218;0.108;2022-10-16T22:03:07;100969.04;;;13.68;100.00
70242;BME280;57631;52.218;0.108;2022-10-16T22:05:33;100957.45;;;13.94;100.00
70242;BME280;57631;52.218;0.108;2022-10-16T22:07:58;100949.34;;;14.10;100.00
70242;BME280;57631;52.218;0.108;2022-10-16T22:10:23;100960.01;;;14.18;100.00
70242;BME280;57631;52.218;0.108;2022-10-16T22:12:48;100966.30;;;13.84;100.00
70242;BME280;57631;52.218;0.108;2022-10-16T22:15:14;100949.05;;;14.54;97.59
70242;BME280;57631;52.218;0.108;2022-10-16T22:17:39;100941.06;;;14.26;98.31
70242;BME280;57631;52.218;0.108;2022-10-16T22:20:06;100934.99;;;14.34;99.22
70242;BME280;57631;52.218;0.108;2022-10-16T22:22:31;100937.24;;;14.41;98.96
70242;BME280;57631;52.218;0.108;2022-10-16T22:24:56;100920.51;;;14.04;99.19
70242;BME280;57631;52.218;0.108;2022-10-16T22:27:21;100916.01;;;14.51;99.61
70242;BME280;57631;52.218;0.108;2022-10-16T22:29:49;100925.12;;;13.81;100.00
70242;BME280;57631;52.218;0.108;2022-10-16T22:32:12;100923.89;;;13.82;100.00
70242;BME280;57631;52.218;0.108;2022-10-16T22:34:37;100916.41;;;13.83;100.00
70242;BME280;57631;52.218;0.108;2022-10-16T22:37:03;100923.94;;;13.96;100.00
70242;BME280;57631;52.218;0.108;2022-10-16T22:39:28;100908.46;;;14.22;100.00
70242;BME280;57631;52.218;0.108;2022-10-16T22:41:54;100902.23;;;14.66;100.00
70242;BME280;57631;52.218;0.108;2022-10-16T22:44:19;100914.40;;;13.78;100.00
70242;BME280;57631;52.218;0.108;2022-10-16T22:46:45;100909.48;;;14.28;100.00
70242;BME280;57631;52.218;0.108;2022-10-16T22:49:10;100908.10;;;14.37;99.42
70242;BME280;57631;52.218;0.108;2022-10-16T22:51:36;100906.32;;;13.64;100.00
70242;BME280;57631;52.218;0.108;2022-10-16T22:54:01;100894.04;;;14.74;97.86
70242;BME280;57631;52.218;0.108;2022-10-16T22:56:27;100898.84;;;15.14;94.17
70242;BME280;57631;52.218;0.108;2022-10-16T22:58:52;100906.20;;;14.10;100.00
70242;BME280;57631;52.218;0.108;2022-10-16T23:01:29;100905.57;;;14.25;99.14
70242;BME280;57631;52.218;0.108;2022-10-16T23:03:51;100905.72;;;14.93;94.66
70242;BME280;57631;52.218;0.108;2022-10-16T23:06:16;100898.12;;;15.21;95.45
70242;BME280;57631;52.218;0.108;2022-10-16T23:08:42;100909.37;;;14.73;96.48
70242;BME280;57631;52.218;0.108;2022-10-16T23:11:09;100888.84;;;15.17;95.78
70242;BME280;57631;52.218;0.108;2022-10-16T23:13:35;100892.75;;;15.66;95.54
70242;BME280;57631;52.218;0.108;2022-10-16T23:15:57;100894.74;;;15.52;94.48
70242;BME280;57631;52.218;0.108;2022-10-16T23:18:23;100892.05;;;15.48;94.67
70242;BME280;57631;52.218;0.108;2022-10-16T23:20:48;100892.79;;;14.96;97.87
70242;BME280;57631;52.218;0.108;2022-10-16T23:23:13;100883.60;;;15.33;96.78
70242;BME280;57631;52.218;0.108;2022-10-16T23:25:44;100884.68;;;14.10;100.00
70242;BME280;57631;52.218;0.108;2022-10-16T23:28:04;100879.10;;;14.88;97.32
70242;BME280;57631;52.218;0.108;2022-10-16T23:30:29;100887.50;;;14.93;97.99
70242;BME280;57631;52.218;0.108;2022-10-16T23:32:55;100879.68;;;15.12;96.87
70242;BME280;57631;52.218;0.108;2022-10-16T23:35:20;100883.93;;;15.22;97.16
70242;BME280;57631;52.218;0.108;2022-10-16T23:37:45;100886.81;;;14.15;100.00
70242;BME280;57631;52.218;0.108;2022-10-16T23:40:11;100876.49;;;15.31;98.02
70242;BME280;57631;52.218;0.108;2022-10-16T23:42:36;100884.58;;;13.61;100.00
70242;BME280;57631;52.218;0.108;2022-10-16T23:45:02;100881.80;;;14.64;100.00
70242;BME280;57631;52.218;0.108;2022-10-16T23:47:27;100883.44;;;15.04;99.42
70242;BME280;57631;52.218;0.108;2022-10-16T23:49:52;100895.33;;;15.31;96.99
70242;BME280;57631;52.218;0.108;2022-10-16T23:52:18;100901.05;;;14.92;100.00
70242;BME280;57631;52.218;0.108;2022-10-16T23:54:43;100905.37;;;14.91;100.00
70242;BME280;57631;52.218;0.108;2022-10-16T23:57:09;100902.20;;;13.80;100.00
70242;BME280;57631;52.218;0.108;2022-10-16T23:59:34;100891.55;;;15.03;100.00
